Terminal Aerodrome Forecast
Issued by NWS Shreveport, LA

Home | Current Version | Previous Version | Text Only | Print | Product List | Glossary On
Versions: 1 2 3 4 5 6 7 8 9 10 11 12 13 14 15 16 17 18 19 20 21 22 23 24 25 26 27 28 29
095
FTUS44 KSHV 240706 AAA
TAFLFK
TAF AMD
KLFK 240706Z 2407/2506 15004KT 6SM BR SCT008
      TEMPO 2407/2409 3SM BR BKN005
     FM240900 VRB03KT 5SM BR VCTS BKN020CB
      TEMPO 2409/2412 VRB15G25KT 2SM +TSRA OVC010CB
     FM241300 28004KT P6SM OVC020
     FM241800 01004KT P6SM OVC035=

USA.gov is the U.S. government's official web portal to all federal, state and local government web resources and services.